sensor_id;sensor_type;location;lat;lon;timestamp;P1;durP1;ratioP1;P2;durP2;ratioP2
80136;SDS011;69466;55.948;37.484;2023-06-10T04:31:05;3.22;;;1.35;;
80136;SDS011;69466;55.948;37.484;2023-06-10T04:33:32;5.13;;;1.33;;
80136;SDS011;69466;55.948;37.484;2023-06-10T04:35:59;2.97;;;0.90;;
80136;SDS011;69466;55.948;37.484;2023-06-10T04:43:16;4.13;;;1.08;;
80136;SDS011;69466;55.948;37.484;2023-06-10T04:45:45;2.72;;;0.80;;
80136;SDS011;69466;55.948;37.484;2023-06-10T04:48:11;3.40;;;1.17;;
80136;SDS011;69466;55.948;37.484;2023-06-10T04:50:37;2.92;;;1.00;;
80136;SDS011;69466;55.948;37.484;2023-06-10T04:53:04;2.92;;;0.98;;
80136;SDS011;69466;55.948;37.484;2023-06-10T04:55:33;2.38;;;0.88;;
80136;SDS011;69466;55.948;37.484;2023-06-10T04:57:59;2.88;;;1.00;;
80136;SDS011;69466;55.948;37.484;2023-06-10T05:00:25;4.00;;;1.20;;
80136;SDS011;69466;55.948;37.484;2023-06-10T05:02:51;3.30;;;0.82;;
80136;SDS011;69466;55.948;37.484;2023-06-10T05:05:17;2.58;;;1.00;;
80136;SDS011;69466;55.948;37.484;2023-06-10T05:07:43;3.25;;;1.10;;
80136;SDS011;69466;55.948;37.484;2023-06-10T05:10:10;3.60;;;0.80;;
80136;SDS011;69466;55.948;37.484;2023-06-10T05:12:40;2.47;;;1.10;;
80136;SDS011;69466;55.948;37.484;2023-06-10T05:15:07;3.72;;;1.25;;
80136;SDS011;69466;55.948;37.484;2023-06-10T05:17:33;1.70;;;0.73;;
80136;SDS011;69466;55.948;37.484;2023-06-10T05:20:02;2.40;;;0.82;;
80136;SDS011;69466;55.948;37.484;2023-06-10T05:22:30;2.53;;;1.20;;
80136;SDS011;69466;55.948;37.484;2023-06-10T05:24:56;3.55;;;0.75;;
80136;SDS011;69466;55.948;37.484;2023-06-10T05:27:22;2.40;;;0.90;;
80136;SDS011;69466;55.948;37.484;2023-06-10T05:29:48;2.50;;;0.77;;
80136;SDS011;69466;55.948;37.484;2023-06-10T05:32:13;5.03;;;0.98;;
80136;SDS011;69466;55.948;37.484;2023-06-10T05:34:40;2.35;;;0.90;;
80136;SDS011;69466;55.948;37.484;2023-06-10T05:37:06;4.80;;;1.38;;
80136;SDS011;69466;55.948;37.484;2023-06-10T05:39:31;3.50;;;1.02;;
80136;SDS011;69466;55.948;37.484;2023-06-10T05:41:57;4.38;;;1.38;;
80136;SDS011;69466;55.948;37.484;2023-06-10T05:44:27;5.45;;;1.75;;
80136;SDS011;69466;55.948;37.484;2023-06-10T05:46:53;8.93;;;1.42;;
80136;SDS011;69466;55.948;37.484;2023-06-10T05:49:19;4.25;;;1.30;;
80136;SDS011;69466;55.948;37.484;2023-06-10T05:51:45;7.18;;;1.50;;
80136;SDS011;69466;55.948;37.484;2023-06-10T05:54:11;9.70;;;1.50;;
80136;SDS011;69466;55.948;37.484;2023-06-10T05:56:36;7.50;;;1.30;;
80136;SDS011;69466;55.948;37.484;2023-06-10T05:59:03;11.50;;;2.20;;
80136;SDS011;69466;55.948;37.484;2023-06-10T06:01:29;2.58;;;1.00;;
80136;SDS011;69466;55.948;37.484;2023-06-10T06:03:55;2.45;;;0.90;;
80136;SDS011;69466;55.948;37.484;2023-06-10T06:06:20;3.47;;;1.23;;
80136;SDS011;69466;55.948;37.484;2023-06-10T06:08:46;3.35;;;0.90;;
80136;SDS011;69466;55.948;37.484;2023-06-10T06:11:12;3.22;;;1.17;;
80136;SDS011;69466;55.948;37.484;2023-06-10T06:13:39;3.90;;;1.10;;
80136;SDS011;69466;55.948;37.484;2023-06-10T06:16:05;5.90;;;1.65;;
80136;SDS011;69466;55.948;37.484;2023-06-10T06:18:30;7.95;;;1.90;;
80136;SDS011;69466;55.948;37.484;2023-06-10T06:20:56;14.13;;;3.03;;
80136;SDS011;69466;55.948;37.484;2023-06-10T06:23:23;9.50;;;2.42;;
80136;SDS011;69466;55.948;37.484;2023-06-10T06:25:49;7.07;;;1.58;;
80136;SDS011;69466;55.948;37.484;2023-06-10T06:28:15;5.00;;;1.30;;
80136;SDS011;69466;55.948;37.484;2023-06-10T06:30:41;3.20;;;0.90;;
80136;SDS011;69466;55.948;37.484;2023-06-10T06:33:06;3.33;;;1.10;;
80136;SDS011;69466;55.948;37.484;2023-06-10T06:35:33;10.07;;;1.60;;
80136;SDS011;69466;55.948;37.484;2023-06-10T06:37:59;7.07;;;1.33;;
80136;SDS011;69466;55.948;37.484;2023-06-10T06:40:27;6.63;;;1.52;;
80136;SDS011;69466;55.948;37.484;2023-06-10T06:42:53;8.68;;;1.60;;
80136;SDS011;69466;55.948;37.484;2023-06-10T06:45:29;5.25;;;1.67;;
80136;SDS011;69466;55.948;37.484;2023-06-10T06:47:55;6.18;;;1.20;;
80136;SDS011;69466;55.948;37.484;2023-06-10T06:50:22;4.43;;;1.05;;
80136;SDS011;69466;55.948;37.484;2023-06-10T06:52:48;8.63;;;1.95;;
80136;SDS011;69466;55.948;37.484;2023-06-10T06:55:13;5.13;;;1.10;;
80136;SDS011;69466;55.948;37.484;2023-06-10T06:57:39;4.72;;;0.80;;
80136;SDS011;69466;55.948;37.484;2023-06-10T07:00:05;2.60;;;0.65;;
80136;SDS011;69466;55.948;37.484;2023-06-10T07:02:31;2.85;;;1.17;;
80136;SDS011;69466;55.948;37.484;2023-06-10T07:04:58;4.05;;;1.30;;
80136;SDS011;69466;55.948;37.484;2023-06-10T07:07:24;7.38;;;1.70;;
80136;SDS011;69466;55.948;37.484;2023-06-10T07:09:50;7.63;;;1.25;;
80136;SDS011;69466;55.948;37.484;2023-06-10T07:12:16;5.40;;;0.90;;
80136;SDS011;69466;55.948;37.484;2023-06-10T07:14:43;6.55;;;1.08;;
80136;SDS011;69466;55.948;37.484;2023-06-10T07:17:08;3.95;;;0.70;;
80136;SDS011;69466;55.948;37.484;2023-06-10T07:19:34;2.30;;;0.60;;
80136;SDS011;69466;55.948;37.484;2023-06-10T07:22:00;3.33;;;1.33;;
80136;SDS011;69466;55.948;37.484;2023-06-10T07:24:26;3.88;;;1.10;;
80136;SDS011;69466;55.948;37.484;2023-06-10T07:26:52;4.78;;;1.10;;
80136;SDS011;69466;55.948;37.484;2023-06-10T07:29:18;2.40;;;0.73;;
80136;SDS011;69466;55.948;37.484;2023-06-10T07:31:43;2.92;;;0.70;;
80136;SDS011;69466;55.948;37.484;2023-06-10T07:34:09;4.78;;;0.85;;
80136;SDS011;69466;55.948;37.484;2023-06-10T07:36:36;4.50;;;1.35;;
80136;SDS011;69466;55.948;37.484;2023-06-10T07:39:02;1.85;;;0.40;;
80136;SDS011;69466;55.948;37.484;2023-06-10T07:41:28;5.63;;;1.02;;
80136;SDS011;69466;55.948;37.484;2023-06-10T07:43:54;9.48;;;1.73;;
80136;SDS011;69466;55.948;37.484;2023-06-10T07:46:21;8.90;;;1.67;;
80136;SDS011;69466;55.948;37.484;2023-06-10T07:48:49;4.60;;;0.60;;
80136;SDS011;69466;55.948;37.484;2023-06-10T07:51:15;2.88;;;0.85;;
80136;SDS011;69466;55.948;37.484;2023-06-10T07:53:42;1.60;;;0.45;;
80136;SDS011;69466;55.948;37.484;2023-06-10T07:56:08;2.58;;;0.63;;
80136;SDS011;69466;55.948;37.484;2023-06-10T07:58:33;2.10;;;1.15;;
80136;SDS011;69466;55.948;37.484;2023-06-10T08:00:59;2.20;;;0.40;;
80136;SDS011;69466;55.948;37.484;2023-06-10T08:03:25;6.35;;;1.17;;
80136;SDS011;69466;55.948;37.484;2023-06-10T08:05:51;2.05;;;0.70;;
80136;SDS011;69466;55.948;37.484;2023-06-10T08:08:16;3.35;;;0.63;;
80136;SDS011;69466;55.948;37.484;2023-06-10T08:10:42;1.30;;;0.40;;
80136;SDS011;69466;55.948;37.484;2023-06-10T08:13:08;2.70;;;0.50;;
80136;SDS011;69466;55.948;37.484;2023-06-10T08:15:34;3.92;;;0.77;;
80136;SDS011;69466;55.948;37.484;2023-06-10T08:18:00;2.72;;;0.80;;
80136;SDS011;69466;55.948;37.484;2023-06-10T08:20:26;3.20;;;0.93;;
80136;SDS011;69466;55.948;37.484;2023-06-10T08:22:52;13.65;;;2.40;;
80136;SDS011;69466;55.948;37.484;2023-06-10T08:25:20;9.73;;;1.42;;
80136;SDS011;69466;55.948;37.484;2023-06-10T08:27:47;6.38;;;2.03;;
80136;SDS011;69466;55.948;37.484;2023-06-10T08:30:13;4.13;;;0.80;;
80136;SDS011;69466;55.948;37.484;2023-06-10T08:32:39;3.42;;;0.80;;
80136;SDS011;69466;55.948;37.484;2023-06-10T08:35:08;5.03;;;0.95;;
80136;SDS011;69466;55.948;37.484;2023-06-10T08:37:34;3.28;;;0.90;;
80136;SDS011;69466;55.948;37.484;2023-06-10T08:40:00;4.82;;;1.30;;
80136;SDS011;69466;55.948;37.484;2023-06-10T08:42:36;6.18;;;1.48;;
80136;SDS011;69466;55.948;37.484;2023-06-10T08:45:05;4.90;;;1.13;;
80136;SDS011;69466;55.948;37.484;2023-06-10T08:47:37;5.55;;;1.10;;
80136;SDS011;69466;55.948;37.484;2023-06-10T08:50:06;2.95;;;0.55;;
80136;SDS011;69466;55.948;37.484;2023-06-10T08:52:35;2.95;;;0.60;;
80136;SDS011;69466;55.948;37.484;2023-06-10T08:55:40;2.25;;;0.80;;
80136;SDS011;69466;55.948;37.484;2023-06-10T08:58:07;5.70;;;1.40;;
80136;SDS011;69466;55.948;37.484;2023-06-10T09:00:33;5.22;;;0.75;;
80136;SDS011;69466;55.948;37.484;2023-06-10T09:03:00;4.10;;;0.90;;
80136;SDS011;69466;55.948;37.484;2023-06-10T09:05:30;3.38;;;0.82;;
80136;SDS011;69466;55.948;37.484;2023-06-10T09:07:58;6.75;;;0.82;;
80136;SDS011;69466;55.948;37.484;2023-06-10T09:10:26;23.10;;;2.85;;
80136;SDS011;69466;55.948;37.484;2023-06-10T09:12:52;15.52;;;2.92;;
80136;SDS011;69466;55.948;37.484;2023-06-10T09:15:18;12.43;;;1.98;;
80136;SDS011;69466;55.948;37.484;2023-06-10T09:17:44;8.18;;;1.10;;
80136;SDS011;69466;55.948;37.484;2023-06-10T09:20:11;5.15;;;1.48;;
80136;SDS011;69466;55.948;37.484;2023-06-10T09:22:37;8.40;;;1.20;;
80136;SDS011;69466;55.948;37.484;2023-06-10T09:25:04;3.42;;;0.80;;
80136;SDS011;69466;55.948;37.484;2023-06-10T09:27:32;6.68;;;0.80;;
80136;SDS011;69466;55.948;37.484;2023-06-10T09:30:16;7.32;;;1.23;;
80136;SDS011;69466;55.948;37.484;2023-06-10T09:32:50;5.47;;;1.48;;
80136;SDS011;69466;55.948;37.484;2023-06-10T09:35:17;6.28;;;1.20;;
80136;SDS011;69466;55.948;37.484;2023-06-10T09:37:43;5.50;;;1.38;;
80136;SDS011;69466;55.948;37.484;2023-06-10T09:40:09;10.10;;;1.10;;
80136;SDS011;69466;55.948;37.484;2023-06-10T09:42:38;5.57;;;0.98;;
80136;SDS011;69466;55.948;37.484;2023-06-10T09:45:05;3.63;;;0.88;;
80136;SDS011;69466;55.948;37.484;2023-06-10T09:47:32;13.93;;;2.25;;
80136;SDS011;69466;55.948;37.484;2023-06-10T09:49:59;8.15;;;1.13;;
80136;SDS011;69466;55.948;37.484;2023-06-10T09:52:26;3.63;;;1.00;;
80136;SDS011;69466;55.948;37.484;2023-06-10T09:54:53;2.83;;;0.55;;
80136;SDS011;69466;55.948;37.484;2023-06-10T09:57:24;4.95;;;0.80;;
80136;SDS011;69466;55.948;37.484;2023-06-10T09:59:54;3.55;;;0.95;;
80136;SDS011;69466;55.948;37.484;2023-06-10T10:02:21;3.58;;;0.98;;
80136;SDS011;69466;55.948;37.484;2023-06-10T10:04:46;6.03;;;1.42;;
80136;SDS011;69466;55.948;37.484;2023-06-10T10:07:13;2.67;;;0.93;;
80136;SDS011;69466;55.948;37.484;2023-06-10T10:09:40;3.15;;;0.70;;
80136;SDS011;69466;55.948;37.484;2023-06-10T10:12:11;4.63;;;0.70;;
80136;SDS011;69466;55.948;37.484;2023-06-10T10:14:41;2.03;;;0.70;;
80136;SDS011;69466;55.948;37.484;2023-06-10T10:17:14;3.93;;;0.87;;
80136;SDS011;69466;55.948;37.484;2023-06-10T10:19:48;3.95;;;0.95;;
80136;SDS011;69466;55.948;37.484;2023-06-10T10:22:26;4.72;;;0.90;;
80136;SDS011;69466;55.948;37.484;2023-06-10T10:24:55;8.98;;;1.23;;
80136;SDS011;69466;55.948;37.484;2023-06-10T10:27:28;4.47;;;0.88;;
80136;SDS011;69466;55.948;37.484;2023-06-10T10:30:00;6.10;;;1.23;;
80136;SDS011;69466;55.948;37.484;2023-06-10T10:32:32;3.95;;;1.13;;
80136;SDS011;69466;55.948;37.484;2023-06-10T10:37:43;8.13;;;0.68;;
80136;SDS011;69466;55.948;37.484;2023-06-10T10:40:10;3.75;;;0.80;;
80136;SDS011;69466;55.948;37.484;2023-06-10T10:42:37;7.72;;;1.35;;
80136;SDS011;69466;55.948;37.484;2023-06-10T10:45:04;8.13;;;0.98;;
80136;SDS011;69466;55.948;37.484;2023-06-10T10:47:32;17.70;;;1.90;;
80136;SDS011;69466;55.948;37.484;2023-06-10T10:50:01;8.00;;;1.25;;
80136;SDS011;69466;55.948;37.484;2023-06-10T10:52:46;2.67;;;0.70;;
80136;SDS011;69466;55.948;37.484;2023-06-10T10:55:17;2.85;;;0.80;;
80136;SDS011;69466;55.948;37.484;2023-06-10T10:57:43;2.55;;;0.60;;
80136;SDS011;69466;55.948;37.484;2023-06-10T11:00:09;3.40;;;0.95;;
80136;SDS011;69466;55.948;37.484;2023-06-10T11:02:36;4.18;;;0.80;;
80136;SDS011;69466;55.948;37.484;2023-06-10T11:05:05;2.72;;;0.70;;
80136;SDS011;69466;55.948;37.484;2023-06-10T11:07:33;3.53;;;0.77;;
80136;SDS011;69466;55.948;37.484;2023-06-10T11:10:00;2.75;;;1.15;;
80136;SDS011;69466;55.948;37.484;2023-06-10T11:15:11;3.70;;;0.70;;
80136;SDS011;69466;55.948;37.484;2023-06-10T11:18:05;3.22;;;0.98;;
80136;SDS011;69466;55.948;37.484;2023-06-10T11:23:48;6.07;;;1.95;;
80136;SDS011;69466;55.948;37.484;2023-06-10T11:26:09;10.20;;;1.90;;
80136;SDS011;69466;55.948;37.484;2023-06-10T11:31:29;5.07;;;1.48;;
80136;SDS011;69466;55.948;37.484;2023-06-10T11:34:03;4.82;;;1.25;;
80136;SDS011;69466;55.948;37.484;2023-06-10T11:36:33;4.40;;;1.10;;
80136;SDS011;69466;55.948;37.484;2023-06-10T11:39:03;6.03;;;1.17;;
80136;SDS011;69466;55.948;37.484;2023-06-10T11:41:30;4.55;;;0.90;;
80136;SDS011;69466;55.948;37.484;2023-06-10T11:44:03;6.18;;;1.52;;
80136;SDS011;69466;55.948;37.484;2023-06-10T11:46:33;4.35;;;1.30;;
80136;SDS011;69466;55.948;37.484;2023-06-10T11:49:00;4.38;;;1.58;;
80136;SDS011;69466;55.948;37.484;2023-06-10T11:51:28;11.10;;;2.22;;
80136;SDS011;69466;55.948;37.484;2023-06-10T11:53:55;6.68;;;1.30;;
80136;SDS011;69466;55.948;37.484;2023-06-10T11:56:28;5.43;;;1.90;;
80136;SDS011;69466;55.948;37.484;2023-06-10T11:59:04;7.78;;;1.20;;
80136;SDS011;69466;55.948;37.484;2023-06-10T12:01:33;7.05;;;1.27;;
80136;SDS011;69466;55.948;37.484;2023-06-10T12:04:04;7.22;;;1.73;;
80136;SDS011;69466;55.948;37.484;2023-06-10T12:06:38;7.90;;;1.20;;
80136;SDS011;69466;55.948;37.484;2023-06-10T12:09:27;4.50;;;1.40;;
80136;SDS011;69466;55.948;37.484;2023-06-10T12:17:23;10.85;;;1.45;;
80136;SDS011;69466;55.948;37.484;2023-06-10T12:20:03;4.97;;;1.10;;
80136;SDS011;69466;55.948;37.484;2023-06-10T12:22:44;4.72;;;1.00;;
80136;SDS011;69466;55.948;37.484;2023-06-10T12:25:10;7.38;;;1.20;;
80136;SDS011;69466;55.948;37.484;2023-06-10T12:27:37;3.83;;;1.27;;
80136;SDS011;69466;55.948;37.484;2023-06-10T12:30:05;4.90;;;1.50;;
80136;SDS011;69466;55.948;37.484;2023-06-10T12:32:34;5.25;;;1.35;;
80136;SDS011;69466;55.948;37.484;2023-06-10T12:35:05;6.45;;;1.60;;
80136;SDS011;69466;55.948;37.484;2023-06-10T12:37:32;15.18;;;3.17;;
80136;SDS011;69466;55.948;37.484;2023-06-10T12:40:03;12.20;;;2.75;;
80136;SDS011;69466;55.948;37.484;2023-06-10T12:42:31;7.35;;;1.98;;
80136;SDS011;69466;55.948;37.484;2023-06-10T12:45:01;9.88;;;1.48;;
80136;SDS011;69466;55.948;37.484;2023-06-10T12:47:30;4.65;;;1.10;;
80136;SDS011;69466;55.948;37.484;2023-06-10T12:49:58;5.10;;;1.55;;
80136;SDS011;69466;55.948;37.484;2023-06-10T12:52:25;4.40;;;1.13;;
80136;SDS011;69466;55.948;37.484;2023-06-10T12:54:51;6.10;;;1.33;;
80136;SDS011;69466;55.948;37.484;2023-06-10T12:57:17;2.63;;;1.10;;
80136;SDS011;69466;55.948;37.484;2023-06-10T12:59:43;5.32;;;1.60;;
80136;SDS011;69466;55.948;37.484;2023-06-10T13:02:15;4.80;;;1.40;;
80136;SDS011;69466;55.948;37.484;2023-06-10T13:04:43;3.65;;;1.25;;
80136;SDS011;69466;55.948;37.484;2023-06-10T13:07:09;12.23;;;2.15;;
80136;SDS011;69466;55.948;37.484;2023-06-10T13:09:36;8.38;;;1.40;;
80136;SDS011;69466;55.948;37.484;2023-06-10T13:12:02;7.13;;;1.52;;
80136;SDS011;69466;55.948;37.484;2023-06-10T13:14:28;10.55;;;1.70;;
80136;SDS011;69466;55.948;37.484;2023-06-10T13:16:54;13.50;;;2.47;;
80136;SDS011;69466;55.948;37.484;2023-06-10T13:19:21;6.90;;;2.00;;
80136;SDS011;69466;55.948;37.484;2023-06-10T13:21:49;3.80;;;1.10;;
80136;SDS011;69466;55.948;37.484;2023-06-10T13:24:15;14.50;;;1.70;;
80136;SDS011;69466;55.948;37.484;2023-06-10T13:26:41;5.55;;;1.40;;
80136;SDS011;69466;55.948;37.484;2023-06-10T13:29:07;4.55;;;1.40;;
80136;SDS011;69466;55.948;37.484;2023-06-10T13:31:33;6.68;;;1.67;;
80136;SDS011;69466;55.948;37.484;2023-06-10T13:33:59;6.93;;;1.50;;
80136;SDS011;69466;55.948;37.484;2023-06-10T13:36:25;4.65;;;1.30;;
80136;SDS011;69466;55.948;37.484;2023-06-10T13:38:51;6.85;;;1.90;;
80136;SDS011;69466;55.948;37.484;2023-06-10T13:41:16;4.95;;;1.90;;
80136;SDS011;69466;55.948;37.484;2023-06-10T13:43:42;9.40;;;2.35;;
80136;SDS011;69466;55.948;37.484;2023-06-10T13:46:08;12.40;;;1.95;;
80136;SDS011;69466;55.948;37.484;2023-06-10T13:48:34;11.10;;;2.17;;
80136;SDS011;69466;55.948;37.484;2023-06-10T13:51:00;11.52;;;1.88;;
80136;SDS011;69466;55.948;37.484;2023-06-10T13:53:26;8.43;;;1.98;;
80136;SDS011;69466;55.948;37.484;2023-06-10T13:55:53;6.00;;;2.45;;
80136;SDS011;69466;55.948;37.484;2023-06-10T13:58:19;6.55;;;1.80;;
80136;SDS011;69466;55.948;37.484;2023-06-10T14:00:45;5.90;;;1.85;;
80136;SDS011;69466;55.948;37.484;2023-06-10T14:03:11;14.48;;;2.28;;
80136;SDS011;69466;55.948;37.484;2023-06-10T14:05:37;3.60;;;1.40;;
80136;SDS011;69466;55.948;37.484;2023-06-10T14:08:03;4.70;;;1.60;;
80136;SDS011;69466;55.948;37.484;2023-06-10T14:10:29;11.63;;;2.30;;
80136;SDS011;69466;55.948;37.484;2023-06-10T14:12:55;7.53;;;1.70;;
80136;SDS011;69466;55.948;37.484;2023-06-10T14:15:20;5.38;;;1.50;;
80136;SDS011;69466;55.948;37.484;2023-06-10T14:17:47;6.50;;;1.70;;
80136;SDS011;69466;55.948;37.484;2023-06-10T14:20:12;6.45;;;1.70;;
80136;SDS011;69466;55.948;37.484;2023-06-10T14:22:38;8.50;;;2.13;;
80136;SDS011;69466;55.948;37.484;2023-06-10T14:25:04;8.55;;;2.00;;
80136;SDS011;69466;55.948;37.484;2023-06-10T14:27:31;4.82;;;1.17;;
80136;SDS011;69466;55.948;37.484;2023-06-10T14:29:56;6.03;;;1.60;;
80136;SDS011;69466;55.948;37.484;2023-06-10T14:32:22;6.22;;;1.77;;
80136;SDS011;69466;55.948;37.484;2023-06-10T14:34:48;4.28;;;1.27;;
80136;SDS011;69466;55.948;37.484;2023-06-10T14:37:14;3.67;;;1.25;;
80136;SDS011;69466;55.948;37.484;2023-06-10T14:39:39;2.97;;;1.08;;
80136;SDS011;69466;55.948;37.484;2023-06-10T14:42:05;3.30;;;1.20;;
80136;SDS011;69466;55.948;37.484;2023-06-10T14:44:31;13.60;;;3.38;;
80136;SDS011;69466;55.948;37.484;2023-06-10T14:46:57;7.50;;;1.52;;
80136;SDS011;69466;55.948;37.484;2023-06-10T14:49:23;5.28;;;1.35;;
80136;SDS011;69466;55.948;37.484;2023-06-10T14:51:49;4.32;;;1.50;;
80136;SDS011;69466;55.948;37.484;2023-06-10T14:54:15;4.45;;;1.23;;
80136;SDS011;69466;55.948;37.484;2023-06-10T14:56:41;6.22;;;2.33;;
80136;SDS011;69466;55.948;37.484;2023-06-10T14:59:07;5.97;;;2.50;;
80136;SDS011;69466;55.948;37.484;2023-06-10T15:01:33;7.30;;;2.30;;
80136;SDS011;69466;55.948;37.484;2023-06-10T15:03:59;7.07;;;1.75;;
80136;SDS011;69466;55.948;37.484;2023-06-10T15:06:24;9.77;;;2.20;;
80136;SDS011;69466;55.948;37.484;2023-06-10T15:08:51;10.65;;;2.05;;
80136;SDS011;69466;55.948;37.484;2023-06-10T15:11:17;6.53;;;1.70;;
80136;SDS011;69466;55.948;37.484;2023-06-10T15:13:43;8.10;;;1.92;;
80136;SDS011;69466;55.948;37.484;2023-06-10T15:16:09;3.90;;;2.05;;
80136;SDS011;69466;55.948;37.484;2023-06-10T15:18:34;6.18;;;2.38;;
80136;SDS011;69466;55.948;37.484;2023-06-10T15:21:00;13.82;;;3.25;;
80136;SDS011;69466;55.948;37.484;2023-06-10T15:23:26;27.73;;;3.20;;
80136;SDS011;69466;55.948;37.484;2023-06-10T15:25:52;12.07;;;2.97;;
80136;SDS011;69466;55.948;37.484;2023-06-10T15:28:18;7.03;;;2.13;;
80136;SDS011;69466;55.948;37.484;2023-06-10T15:30:44;6.85;;;2.28;;
80136;SDS011;69466;55.948;37.484;2023-06-10T15:33:09;7.85;;;2.30;;
80136;SDS011;69466;55.948;37.484;2023-06-10T15:35:35;6.95;;;1.77;;
80136;SDS011;69466;55.948;37.484;2023-06-10T15:38:01;10.00;;;2.30;;
80136;SDS011;69466;55.948;37.484;2023-06-10T15:40:27;6.10;;;1.50;;
80136;SDS011;69466;55.948;37.484;2023-06-10T15:42:56;5.28;;;1.90;;
80136;SDS011;69466;55.948;37.484;2023-06-10T15:45:22;7.07;;;2.25;;
80136;SDS011;69466;55.948;37.484;2023-06-10T15:47:48;7.75;;;2.47;;
80136;SDS011;69466;55.948;37.484;2023-06-10T15:50:14;8.88;;;2.30;;
80136;SDS011;69466;55.948;37.484;2023-06-10T15:52:39;10.85;;;3.72;;
80136;SDS011;69466;55.948;37.484;2023-06-10T15:55:05;9.52;;;3.47;;
80136;SDS011;69466;55.948;37.484;2023-06-10T15:57:31;10.38;;;2.67;;
80136;SDS011;69466;55.948;37.484;2023-06-10T15:59:57;6.53;;;2.30;;
80136;SDS011;69466;55.948;37.484;2023-06-10T16:02:23;8.55;;;2.88;;
80136;SDS011;69466;55.948;37.484;2023-06-10T16:04:49;14.13;;;2.60;;
80136;SDS011;69466;55.948;37.484;2023-06-10T16:07:15;9.77;;;3.00;;
80136;SDS011;69466;55.948;37.484;2023-06-10T16:09:40;10.18;;;2.50;;
80136;SDS011;69466;55.948;37.484;2023-06-10T16:12:08;4.75;;;1.73;;
80136;SDS011;69466;55.948;37.484;2023-06-10T16:14:34;4.60;;;1.30;;
80136;SDS011;69466;55.948;37.484;2023-06-10T16:17:00;5.55;;;1.80;;
80136;SDS011;69466;55.948;37.484;2023-06-10T16:19:26;6.13;;;1.90;;
80136;SDS011;69466;55.948;37.484;2023-06-10T16:21:52;4.78;;;1.67;;
80136;SDS011;69466;55.948;37.484;2023-06-10T16:24:18;4.28;;;1.50;;
80136;SDS011;69466;55.948;37.484;2023-06-10T16:26:44;3.10;;;1.23;;
80136;SDS011;69466;55.948;37.484;2023-06-10T16:29:10;9.02;;;1.88;;
80136;SDS011;69466;55.948;37.484;2023-06-10T16:31:41;5.70;;;1.90;;
80136;SDS011;69466;55.948;37.484;2023-06-10T16:34:07;5.43;;;1.63;;
80136;SDS011;69466;55.948;37.484;2023-06-10T16:36:33;6.25;;;2.00;;
80136;SDS011;69466;55.948;37.484;2023-06-10T16:39:01;13.60;;;2.25;;
80136;SDS011;69466;55.948;37.484;2023-06-10T16:41:27;5.75;;;1.73;;
80136;SDS011;69466;55.948;37.484;2023-06-10T16:43:53;4.93;;;1.77;;
80136;SDS011;69466;55.948;37.484;2023-06-10T16:46:19;6.75;;;1.52;;
80136;SDS011;69466;55.948;37.484;2023-06-10T16:48:50;6.78;;;1.60;;
80136;SDS011;69466;55.948;37.484;2023-06-10T16:51:16;7.63;;;3.28;;
80136;SDS011;69466;55.948;37.484;2023-06-10T16:53:47;4.47;;;1.45;;
80136;SDS011;69466;55.948;37.484;2023-06-10T16:56:13;3.50;;;1.00;;
80136;SDS011;69466;55.948;37.484;2023-06-10T16:58:39;6.68;;;1.67;;
80136;SDS011;69466;55.948;37.484;2023-06-10T17:01:06;7.20;;;1.60;;
80136;SDS011;69466;55.948;37.484;2023-06-10T17:03:33;4.15;;;1.60;;
80136;SDS011;69466;55.948;37.484;2023-06-10T17:05:59;6.65;;;1.70;;
80136;SDS011;69466;55.948;37.484;2023-06-10T17:08:25;9.15;;;2.67;;
80136;SDS011;69466;55.948;37.484;2023-06-10T17:10:54;8.73;;;2.58;;
80136;SDS011;69466;55.948;37.484;2023-06-10T17:13:19;7.82;;;2.55;;
80136;SDS011;69466;55.948;37.484;2023-06-10T17:15:46;5.35;;;1.80;;
80136;SDS011;69466;55.948;37.484;2023-06-10T17:18:12;7.25;;;2.42;;
80136;SDS011;69466;55.948;37.484;2023-06-10T17:20:38;8.25;;;2.17;;
80136;SDS011;69466;55.948;37.484;2023-06-10T17:23:03;5.03;;;1.50;;
80136;SDS011;69466;55.948;37.484;2023-06-10T17:25:33;4.55;;;1.73;;
80136;SDS011;69466;55.948;37.484;2023-06-10T17:28:02;5.72;;;1.73;;
80136;SDS011;69466;55.948;37.484;2023-06-10T17:30:28;6.50;;;2.20;;
80136;SDS011;69466;55.948;37.484;2023-06-10T17:32:57;5.57;;;1.63;;
80136;SDS011;69466;55.948;37.484;2023-06-10T17:35:23;10.82;;;1.90;;
80136;SDS011;69466;55.948;37.484;2023-06-10T17:37:48;8.73;;;2.75;;
80136;SDS011;69466;55.948;37.484;2023-06-10T17:40:14;5.43;;;2.20;;
80136;SDS011;69466;55.948;37.484;2023-06-10T17:42:43;7.00;;;1.88;;
80136;SDS011;69466;55.948;37.484;2023-06-10T17:45:09;6.07;;;2.17;;
80136;SDS011;69466;55.948;37.484;2023-06-10T17:47:35;7.97;;;2.13;;
80136;SDS011;69466;55.948;37.484;2023-06-10T17:50:01;10.65;;;2.75;;
80136;SDS011;69466;55.948;37.484;2023-06-10T17:52:30;7.70;;;2.40;;
80136;SDS011;69466;55.948;37.484;2023-06-10T17:54:56;7.10;;;2.53;;
80136;SDS011;69466;55.948;37.484;2023-06-10T17:57:22;8.40;;;2.70;;
80136;SDS011;69466;55.948;37.484;2023-06-10T17:59:49;8.80;;;3.13;;
80136;SDS011;69466;55.948;37.484;2023-06-10T18:02:18;6.65;;;2.55;;
80136;SDS011;69466;55.948;37.484;2023-06-10T18:04:44;8.95;;;4.13;;
80136;SDS011;69466;55.948;37.484;2023-06-10T18:07:10;7.47;;;2.58;;
80136;SDS011;69466;55.948;37.484;2023-06-10T18:09:36;6.45;;;2.38;;
80136;SDS011;69466;55.948;37.484;2023-06-10T18:12:02;7.95;;;2.15;;
80136;SDS011;69466;55.948;37.484;2023-06-10T18:14:28;8.30;;;2.80;;
80136;SDS011;69466;55.948;37.484;2023-06-10T18:16:54;9.30;;;4.18;;
80136;SDS011;69466;55.948;37.484;2023-06-10T18:19:20;6.72;;;2.60;;
80136;SDS011;69466;55.948;37.484;2023-06-10T18:21:47;6.53;;;2.13;;
80136;SDS011;69466;55.948;37.484;2023-06-10T18:24:13;7.80;;;3.08;;
80136;SDS011;69466;55.948;37.484;2023-06-10T18:26:38;5.95;;;2.60;;
80136;SDS011;69466;55.948;37.484;2023-06-10T18:29:04;6.80;;;2.80;;
80136;SDS011;69466;55.948;37.484;2023-06-10T18:31:30;5.03;;;2.47;;
80136;SDS011;69466;55.948;37.484;2023-06-10T18:33:56;4.43;;;2.10;;
80136;SDS011;69466;55.948;37.484;2023-06-10T18:36:22;6.53;;;1.98;;
80136;SDS011;69466;55.948;37.484;2023-06-10T18:38:48;5.25;;;2.17;;
80136;SDS011;69466;55.948;37.484;2023-06-10T18:41:17;6.57;;;2.70;;
80136;SDS011;69466;55.948;37.484;2023-06-10T18:43:43;5.80;;;2.10;;
80136;SDS011;69466;55.948;37.484;2023-06-10T18:46:08;5.65;;;2.13;;
80136;SDS011;69466;55.948;37.484;2023-06-10T18:48:37;6.93;;;3.55;;
80136;SDS011;69466;55.948;37.484;2023-06-10T18:51:09;4.68;;;2.05;;
80136;SDS011;69466;55.948;37.484;2023-06-10T18:53:36;6.18;;;2.65;;
80136;SDS011;69466;55.948;37.484;2023-06-10T18:56:01;5.72;;;2.30;;
80136;SDS011;69466;55.948;37.484;2023-06-10T18:58:32;6.60;;;2.67;;
80136;SDS011;69466;55.948;37.484;2023-06-10T19:00:59;7.68;;;2.60;;
80136;SDS011;69466;55.948;37.484;2023-06-10T19:03:25;6.70;;;3.15;;
80136;SDS011;69466;55.948;37.484;2023-06-10T19:05:51;9.55;;;3.67;;
80136;SDS011;69466;55.948;37.484;2023-06-10T19:08:20;6.70;;;3.60;;
80136;SDS011;69466;55.948;37.484;2023-06-10T19:10:46;5.85;;;2.65;;
80136;SDS011;69466;55.948;37.484;2023-06-10T19:13:15;6.05;;;2.75;;
80136;SDS011;69466;55.948;37.484;2023-06-10T19:15:41;5.05;;;3.15;;
80136;SDS011;69466;55.948;37.484;2023-06-10T19:18:07;6.15;;;2.78;;
80136;SDS011;69466;55.948;37.484;2023-06-10T19:20:33;6.68;;;2.60;;
80136;SDS011;69466;55.948;37.484;2023-06-10T19:23:00;7.78;;;2.85;;
80136;SDS011;69466;55.948;37.484;2023-06-10T19:25:26;9.38;;;2.65;;